createdAt,value
2022-08-04T00:02:26.400Z,100299.91
2022-08-04T00:04:56.952Z,100299.16
2022-08-04T00:07:44.150Z,100301.09
2022-08-04T00:10:17.745Z,100304.94
2022-08-04T00:12:49.252Z,100304.22
2022-08-04T00:15:18.352Z,100302.81
2022-08-04T00:17:47.735Z,100297.88
2022-08-04T00:20:19.418Z,100301.69
2022-08-04T00:22:49.197Z,100301.91
2022-08-04T00:25:18.715Z,100303.84
2022-08-04T00:27:47.349Z,100307.53
2022-08-04T00:30:15.565Z,100300.53
2022-08-04T00:32:44.119Z,100303.41
2022-08-04T00:35:15.812Z,100303.63
2022-08-04T00:37:45.393Z,100299.47
2022-08-04T00:40:18.007Z,100305.00
2022-08-04T00:42:58.974Z,100300.03
2022-08-04T00:46:16.278Z,100301.19
2022-08-04T00:48:46.606Z,100305.63
2022-08-04T00:51:22.139Z,100300.47
2022-08-04T00:53:56.642Z,100301.63
2022-08-04T00:56:47.373Z,100299.41
2022-08-04T00:59:29.958Z,100304.50
2022-08-04T01:02:02.059Z,100305.66
2022-08-04T01:04:39.302Z,100306.81
2022-08-04T01:07:16.688Z,100306.16
2022-08-04T01:09:52.827Z,100310.06
2022-08-04T01:12:34.507Z,100309.44
2022-08-04T01:15:07.155Z,100301.94
2022-08-04T01:17:44.307Z,100304.88
2022-08-04T01:20:13.411Z,100301.59
2022-08-04T01:23:00.381Z,100305.41
2022-08-04T01:25:43.887Z,100296.72
2022-08-04T01:28:28.663Z,100299.38
2022-08-04T01:31:08.541Z,100300.34
2022-08-04T01:34:03.154Z,100302.03
2022-08-04T01:36:34.874Z,100304.13
2022-08-04T01:39:25.246Z,100299.03
2022-08-04T01:41:58.272Z,100300.97
2022-08-04T01:44:28.555Z,100303.81
2022-08-04T01:46:59.513Z,100304.75
2022-08-04T01:49:30.204Z,100310.88
2022-08-04T01:52:11.614Z,100311.94
2022-08-04T01:54:42.510Z,100301.25
2022-08-04T01:57:38.714Z,100305.50
2022-08-04T02:00:00.585Z,100314.50
2022-08-04T02:02:30.704Z,100303.25
2022-08-04T02:04:59.240Z,100298.78
2022-08-04T02:07:33.982Z,100296.28
2022-08-04T02:10:06.060Z,100299.84
2022-08-04T02:12:49.358Z,100302.63
2022-08-04T02:15:23.262Z,100298.34
2022-08-04T02:17:58.472Z,100304.53
2022-08-04T02:20:31.630Z,100289.66
2022-08-04T02:23:01.783Z,100295.94
2022-08-04T02:25:34.032Z,100294.44
2022-08-04T02:28:09.298Z,100286.59
2022-08-04T02:30:41.831Z,100290.28
2022-08-04T02:33:14.687Z,100283.50
2022-08-04T02:35:44.875Z,100280.84
2022-08-04T02:38:17.815Z,100282.84
2022-08-04T02:40:59.202Z,100276.94
2022-08-04T02:43:50.875Z,100284.09
2022-08-04T02:46:18.989Z,100283.91
2022-08-04T02:48:49.637Z,100275.88
2022-08-04T02:51:20.243Z,100269.91
2022-08-04T02:53:51.439Z,100284.09
2022-08-04T02:56:21.315Z,100275.53
2022-08-04T02:58:52.689Z,100274.03
2022-08-04T03:01:23.505Z,100277.53
2022-08-04T03:04:00.351Z,100282.84
2022-08-04T03:06:46.350Z,100284.72
2022-08-04T03:09:24.821Z,100284.06
2022-08-04T03:12:16.499Z,100281.75
2022-08-04T03:14:55.615Z,100286.19
2022-08-04T03:17:53.191Z,100287.03
2022-08-04T03:20:42.296Z,100287.22
2022-08-04T03:23:40.282Z,100289.78
2022-08-04T03:26:29.240Z,100286.44
2022-08-04T03:29:15.733Z,100290.03
2022-08-04T03:32:13.552Z,100289.09
2022-08-04T03:34:50.433Z,100290.84
2022-08-04T03:37:32.839Z,100291.66
2022-08-04T03:40:22.496Z,100303.28
2022-08-04T03:43:03.647Z,100312.84
2022-08-04T03:45:47.768Z,100305.88
2022-08-04T03:48:28.591Z,100305.94
2022-08-04T03:51:36.522Z,100304.97
2022-08-04T03:54:30.452Z,100305.19
2022-08-04T03:57:21.299Z,100314.09
2022-08-04T04:00:02.631Z,100313.31
2022-08-04T04:03:03.705Z,100322.13
2022-08-04T04:05:59.818Z,100315.16
2022-08-04T04:08:45.078Z,100314.09
2022-08-04T04:11:24.624Z,100320.03
2022-08-04T04:14:10.453Z,100325.91
2022-08-04T04:17:00.382Z,100321.16
2022-08-04T04:19:37.099Z,100318.19
2022-08-04T04:22:13.478Z,100332.75
2022-08-04T04:24:59.525Z,100331.28
2022-08-04T04:27:36.013Z,100328.97
2022-08-04T04:30:09.525Z,100331.88
2022-08-04T04:32:55.643Z,100334.66
2022-08-04T04:35:34.540Z,100339.13
2022-08-04T04:38:19.549Z,100340.00
2022-08-04T04:40:54.392Z,100337.25
2022-08-04T04:43:51.006Z,100336.44
2022-08-04T04:46:28.645Z,100335.50
2022-08-04T04:49:02.660Z,100341.94
2022-08-04T04:51:35.304Z,100350.22
2022-08-04T04:54:07.514Z,100346.91
2022-08-04T04:56:40.507Z,100349.25
2022-08-04T04:59:12.183Z,100350.72
2022-08-04T05:01:50.601Z,100352.31
2022-08-04T05:04:33.772Z,100355.47
2022-08-04T05:07:11.774Z,100356.97
2022-08-04T05:09:47.778Z,100356.75
2022-08-04T05:12:59.269Z,100362.59
2022-08-04T05:15:14.341Z,100356.94
2022-08-04T05:17:45.320Z,100363.81
2022-08-04T05:20:21.628Z,100351.81
2022-08-04T05:22:54.069Z,100358.19
2022-08-04T05:25:24.314Z,100362.00
2022-08-04T05:27:57.598Z,100364.19
2022-08-04T05:30:32.692Z,100358.22
2022-08-04T05:33:03.798Z,100361.47
2022-08-04T05:35:53.997Z,100355.00
2022-08-04T05:38:25.322Z,100357.44
2022-08-04T05:40:55.176Z,100362.50
2022-08-04T05:43:27.307Z,100363.13
2022-08-04T05:45:58.248Z,100365.66
2022-08-04T05:48:30.689Z,100361.09
2022-08-04T05:51:01.126Z,100368.81
2022-08-04T05:53:30.430Z,100371.31
2022-08-04T05:56:03.360Z,100368.00
2022-08-04T05:58:32.583Z,100369.78
2022-08-04T06:01:03.523Z,100368.38
2022-08-04T06:03:32.435Z,100372.75
2022-08-04T06:06:04.627Z,100371.91
2022-08-04T06:08:35.659Z,100371.78
2022-08-04T06:11:09.883Z,100373.44
2022-08-04T06:13:49.688Z,100373.63
2022-08-04T06:16:30.954Z,100375.66
2022-08-04T06:20:03.830Z,100386.13
2022-08-04T06:21:52.287Z,100380.91
2022-08-04T06:24:21.599Z,100373.31
2022-08-04T06:26:54.586Z,100378.78
2022-08-04T06:29:28.459Z,100380.88
2022-08-04T06:32:30.199Z,100380.97
2022-08-04T06:35:02.288Z,100378.03
2022-08-04T06:37:42.807Z,100383.47
2022-08-04T06:40:30.032Z,100386.06
2022-08-04T06:43:01.167Z,100376.41
2022-08-04T06:45:30.007Z,100378.09
2022-08-04T06:48:01.220Z,100383.03
2022-08-04T06:51:25.115Z,100376.28
2022-08-04T06:53:19.539Z,100376.47
2022-08-04T06:55:50.873Z,100375.16
2022-08-04T06:58:22.050Z,100375.25
2022-08-04T07:00:52.459Z,100376.34
2022-08-04T07:03:23.095Z,100377.19
2022-08-04T07:05:52.584Z,100380.69
2022-08-04T07:08:22.366Z,100382.16
2022-08-04T07:10:53.575Z,100383.97
2022-08-04T07:13:24.068Z,100384.59
2022-08-04T07:15:53.617Z,100384.22
2022-08-04T07:18:23.646Z,100382.50
2022-08-04T07:20:52.754Z,100382.69
2022-08-04T07:23:25.248Z,100378.94
2022-08-04T07:26:11.585Z,100378.50
2022-08-04T07:28:44.013Z,100381.66
2022-08-04T07:31:31.763Z,100387.31
2022-08-04T07:34:16.734Z,100383.09
2022-08-04T07:36:55.377Z,100389.25
2022-08-04T07:39:28.245Z,100391.00
2022-08-04T07:41:59.172Z,100387.91
2022-08-04T07:44:30.499Z,100388.50
2022-08-04T07:46:59.131Z,100390.91
2022-08-04T07:49:54.845Z,100389.78
2022-08-04T07:52:18.318Z,100391.81
2022-08-04T07:54:49.202Z,100391.56
2022-08-04T07:57:40.630Z,100385.22
2022-08-04T08:00:10.181Z,100381.91
2022-08-04T08:02:42.363Z,100392.19
2022-08-04T08:05:17.018Z,100385.47
2022-08-04T08:07:50.613Z,100386.47
2022-08-04T08:10:23.201Z,100388.69
2022-08-04T08:12:53.476Z,100379.59
2022-08-04T08:15:22.348Z,100385.72
2022-08-04T08:17:58.501Z,100383.56
2022-08-04T08:20:32.084Z,100377.97
2022-08-04T08:23:02.916Z,100375.78
2022-08-04T08:25:31.571Z,100383.53
2022-08-04T08:28:00.782Z,100383.00
2022-08-04T08:30:32.102Z,100386.38
2022-08-04T08:33:07.156Z,100391.59
2022-08-04T08:35:53.226Z,100389.00
2022-08-04T08:38:37.832Z,100392.31
2022-08-04T08:41:40.441Z,100389.94
2022-08-04T08:44:36.298Z,100391.41
2022-08-04T08:47:11.551Z,100395.97
2022-08-04T08:50:04.113Z,100382.44
2022-08-04T08:53:01.036Z,100386.44
2022-08-04T08:55:31.382Z,100390.38
2022-08-04T08:58:09.361Z,100387.66
2022-08-04T09:00:44.134Z,100387.31
2022-08-04T09:03:28.001Z,100387.47
2022-08-04T09:06:06.480Z,100388.22
2022-08-04T09:08:49.594Z,100384.22
2022-08-04T09:11:22.272Z,100393.94
2022-08-04T09:13:54.389Z,100383.59
2022-08-04T09:16:26.724Z,100385.75
2022-08-04T09:18:58.418Z,100377.06
2022-08-04T09:21:32.265Z,100382.88
2022-08-04T09:24:34.646Z,100380.91
2022-08-04T09:26:59.907Z,100379.81
2022-08-04T09:29:32.408Z,100379.91
2022-08-04T09:32:07.717Z,100372.53
2022-08-04T09:34:45.488Z,100379.91
2022-08-04T09:37:19.012Z,100377.00
2022-08-04T09:39:52.068Z,100372.41
2022-08-04T09:42:29.047Z,100372.94
2022-08-04T09:45:05.693Z,100380.22
2022-08-04T09:47:40.831Z,100384.41
2022-08-04T09:50:16.754Z,100382.78
2022-08-04T09:52:49.152Z,100378.00
2022-08-04T09:55:22.839Z,100376.47
2022-08-04T09:57:58.050Z,100370.94
2022-08-04T10:00:40.405Z,100371.97
2022-08-04T10:03:16.019Z,100369.84
2022-08-04T10:05:55.019Z,100371.63
2022-08-04T10:08:31.718Z,100371.56
2022-08-04T10:11:05.360Z,100370.31
2022-08-04T10:13:41.299Z,100365.28
2022-08-04T10:16:17.800Z,100356.84
2022-08-04T10:18:51.266Z,100352.75
2022-08-04T10:21:24.751Z,100359.50
2022-08-04T10:24:07.876Z,100353.72
2022-08-04T10:26:41.968Z,100355.03
2022-08-04T10:29:16.227Z,100351.25
2022-08-04T10:31:47.883Z,100350.03
2022-08-04T10:34:21.677Z,100348.56
2022-08-04T10:36:55.112Z,100343.63
2022-08-04T10:39:43.578Z,100342.25
2022-08-04T10:42:17.743Z,100337.44
2022-08-04T10:44:57.454Z,100337.13
2022-08-04T10:47:28.339Z,100337.63
2022-08-04T10:49:57.861Z,100341.25
2022-08-04T10:52:30.297Z,100339.44
2022-08-04T10:55:03.916Z,100335.28
2022-08-04T10:57:41.064Z,100328.63
2022-08-04T11:00:14.929Z,100323.69
2022-08-04T11:02:46.601Z,100324.31
2022-08-04T11:05:28.848Z,100319.16
2022-08-04T11:08:01.205Z,100315.19
2022-08-04T11:10:32.601Z,100310.34
2022-08-04T11:13:05.338Z,100323.03
2022-08-04T11:15:39.704Z,100326.06
2022-08-04T11:18:16.602Z,100316.72
2022-08-04T11:20:51.283Z,100325.72
2022-08-04T11:23:23.779Z,100316.94
2022-08-04T11:25:55.044Z,100320.28
2022-08-04T11:28:30.275Z,100318.81
2022-08-04T11:31:04.643Z,100315.28
2022-08-04T11:33:36.871Z,100311.34
2022-08-04T11:36:09.874Z,100305.50
2022-08-04T11:38:41.143Z,100308.69
2022-08-04T11:41:15.222Z,100313.69
2022-08-04T11:43:56.613Z,100311.56
2022-08-04T11:46:37.312Z,100303.91
2022-08-04T11:49:08.631Z,100305.38
2022-08-04T11:51:37.777Z,100306.25
2022-08-04T11:54:06.581Z,100302.25
2022-08-04T11:56:38.192Z,100308.94
2022-08-04T11:59:09.161Z,100304.06
2022-08-04T12:01:47.903Z,100297.81
2022-08-04T12:04:19.111Z,100300.97
2022-08-04T12:07:04.609Z,100302.06
2022-08-04T12:09:46.085Z,100295.13
2022-08-04T12:12:21.226Z,100290.31
2022-08-04T12:14:56.795Z,100286.13
2022-08-04T12:17:52.088Z,100284.25
2022-08-04T12:20:33.517Z,100289.47
2022-08-04T12:23:16.345Z,100279.84
2022-08-04T12:25:47.994Z,100290.75
2022-08-04T12:28:20.037Z,100287.41
2022-08-04T12:30:57.760Z,100276.50
2022-08-04T12:34:03.308Z,100278.22
2022-08-04T12:36:29.351Z,100260.44
2022-08-04T12:39:01.888Z,100265.66
2022-08-04T12:41:35.889Z,100276.09
2022-08-04T12:44:32.757Z,100271.50
2022-08-04T12:47:25.759Z,100265.00
2022-08-04T12:50:00.476Z,100258.75
2022-08-04T12:52:59.586Z,100268.16
2022-08-04T12:55:22.746Z,100263.56
2022-08-04T12:57:52.339Z,100266.88
2022-08-04T13:00:31.290Z,100261.25
2022-08-04T13:03:16.976Z,100256.44
2022-08-04T13:05:48.261Z,100255.41
2022-08-04T13:08:21.570Z,100252.84
2022-08-04T13:10:52.040Z,100243.88
2022-08-04T13:13:22.043Z,100244.72
2022-08-04T13:15:58.008Z,100234.03
2022-08-04T13:18:30.297Z,100237.56
2022-08-04T13:21:19.806Z,100231.69
2022-08-04T13:24:20.635Z,100230.47
2022-08-04T13:26:43.533Z,100231.31
2022-08-04T13:29:23.709Z,100226.91
2022-08-04T13:32:13.091Z,100225.25
2022-08-04T13:34:42.567Z,100216.25
2022-08-04T13:37:21.495Z,100219.19
2022-08-04T13:39:55.714Z,100215.63
2022-08-04T13:42:25.886Z,100215.81
2022-08-04T13:44:56.047Z,100218.09
2022-08-04T13:47:29.634Z,100212.50
2022-08-04T13:50:11.233Z,100216.47
2022-08-04T13:52:43.729Z,100211.44
2022-08-04T13:55:21.144Z,100205.56
2022-08-04T13:57:52.145Z,100209.13
2022-08-04T14:00:29.200Z,100207.63
2022-08-04T14:03:23.130Z,100208.66
2022-08-04T14:06:22.427Z,100207.38
2022-08-04T14:08:54.649Z,100197.69
2022-08-04T14:12:10.198Z,100208.53
2022-08-04T14:14:17.513Z,100197.28
2022-08-04T14:16:58.975Z,100199.31
2022-08-04T14:19:31.075Z,100199.56
2022-08-04T14:22:05.120Z,100189.72
2022-08-04T14:24:35.624Z,100195.16
2022-08-04T14:27:03.873Z,100198.09
2022-08-04T14:29:38.897Z,100194.66
2022-08-04T14:32:13.838Z,100195.09
2022-08-04T14:34:51.468Z,100189.44
2022-08-04T14:37:22.729Z,100186.44
2022-08-04T14:40:08.323Z,100184.06
2022-08-04T14:42:55.185Z,100181.94
2022-08-04T14:45:32.504Z,100182.72
2022-08-04T14:48:01.657Z,100182.22
2022-08-04T14:50:38.204Z,100182.31
2022-08-04T14:53:09.555Z,100176.47
2022-08-04T14:55:40.358Z,100182.94
2022-08-04T14:58:36.700Z,100172.47
2022-08-04T15:00:58.338Z,100174.06
2022-08-04T15:03:27.357Z,100175.88
2022-08-04T15:06:05.531Z,100168.38
2022-08-04T15:08:37.088Z,100168.59
2022-08-04T15:11:06.949Z,100174.72
2022-08-04T15:13:35.522Z,100173.69
2022-08-04T15:16:08.107Z,100168.94
2022-08-04T15:18:39.669Z,100163.41
2022-08-04T15:21:09.431Z,100164.56
2022-08-04T15:23:40.236Z,100162.63
2022-08-04T15:26:15.212Z,100167.75
2022-08-04T15:28:48.491Z,100156.59
2022-08-04T15:32:07.906Z,100162.28
2022-08-04T15:34:06.613Z,100160.72
2022-08-04T15:36:43.858Z,100160.28
2022-08-04T15:39:29.777Z,100155.41
2022-08-04T15:42:12.945Z,100159.53
2022-08-04T15:45:12.472Z,100150.50
2022-08-04T15:47:41.634Z,100153.25
2022-08-04T15:50:28.152Z,100156.56
2022-08-04T15:53:10.834Z,100158.50
2022-08-04T15:55:42.128Z,100154.59
2022-08-04T15:58:14.158Z,100150.50
2022-08-04T16:01:01.072Z,100147.41
2022-08-04T16:04:00.189Z,100149.88
2022-08-04T16:06:46.622Z,100149.66
2022-08-04T16:09:25.621Z,100140.69
2022-08-04T16:12:53.192Z,100144.31
2022-08-04T16:15:40.161Z,100142.88
2022-08-04T16:18:25.494Z,100134.81
2022-08-04T16:20:57.447Z,100133.38
2022-08-04T16:23:56.029Z,100135.78
2022-08-04T16:26:46.285Z,100129.44
2022-08-04T16:29:31.011Z,100126.78
2022-08-04T16:32:10.798Z,100129.53
2022-08-04T16:34:49.311Z,100140.19
2022-08-04T16:37:24.426Z,100141.75
2022-08-04T16:40:12.693Z,100137.91
2022-08-04T16:42:40.999Z,100144.34
2022-08-04T16:45:14.112Z,100135.63
2022-08-04T16:48:00.816Z,100129.78
2022-08-04T16:50:31.343Z,100134.56
2022-08-04T16:52:59.761Z,100142.13
2022-08-04T16:55:32.843Z,100134.41
2022-08-04T16:58:01.231Z,100133.06
2022-08-04T17:00:31.963Z,100138.16
2022-08-04T17:03:03.338Z,100134.59
2022-08-04T17:05:39.743Z,100131.25
2022-08-04T17:10:57.638Z,100132.34
2022-08-04T17:14:03.974Z,100129.00
2022-08-04T17:16:18.663Z,100132.19
2022-08-04T17:18:48.202Z,100133.69
2022-08-04T17:21:20.047Z,100132.19
2022-08-04T17:24:15.366Z,100126.59
2022-08-04T17:26:40.307Z,100128.47
2022-08-04T17:29:09.844Z,100127.81
2022-08-04T17:31:40.624Z,100140.22
2022-08-04T17:34:15.575Z,100136.88
2022-08-04T17:36:47.440Z,100135.00
2022-08-04T17:39:17.778Z,100130.31
2022-08-04T17:41:49.178Z,100133.63
2022-08-04T17:44:18.278Z,100132.88
2022-08-04T17:46:48.136Z,100130.84
2022-08-04T17:49:23.836Z,100138.56
2022-08-04T17:54:44.968Z,100137.88
2022-08-04T17:57:19.546Z,100143.69
2022-08-04T17:59:57.700Z,100141.41
2022-08-04T18:02:32.685Z,100137.63
2022-08-04T18:05:11.711Z,100149.91
2022-08-04T18:08:35.265Z,100147.75
2022-08-04T18:10:51.669Z,100148.16
2022-08-04T18:13:23.575Z,100153.59
2022-08-04T18:16:02.495Z,100150.16
2022-08-04T18:18:31.320Z,100151.38
2022-08-04T18:23:52.575Z,100148.41
2022-08-04T18:26:24.106Z,100150.31
2022-08-04T18:28:52.757Z,100155.88
2022-08-04T18:31:22.890Z,100159.47
2022-08-04T18:33:59.082Z,100156.66
2022-08-04T18:36:33.913Z,100150.63
2022-08-04T18:39:13.104Z,100166.06
2022-08-04T18:42:01.870Z,100161.69
2022-08-04T18:44:32.589Z,100164.53
2022-08-04T18:47:22.449Z,100163.13
2022-08-04T18:50:59.325Z,100163.84
2022-08-04T18:52:42.117Z,100164.44
2022-08-04T18:55:55.457Z,100170.25
2022-08-04T18:58:07.196Z,100165.75
2022-08-04T19:00:45.860Z,100166.75
2022-08-04T19:03:16.326Z,100168.44
2022-08-04T19:05:51.517Z,100160.31
2022-08-04T19:08:33.067Z,100159.41
2022-08-04T19:11:35.308Z,100159.56
2022-08-04T19:13:58.580Z,100169.00
2022-08-04T19:16:27.598Z,100161.13
2022-08-04T19:18:57.510Z,100167.59
2022-08-04T19:21:59.386Z,100165.03
2022-08-04T19:24:31.814Z,100162.22
2022-08-04T19:27:06.341Z,100163.06
2022-08-04T19:29:41.356Z,100167.84
2022-08-04T19:32:15.136Z,100166.97
2022-08-04T19:34:45.974Z,100162.44
2022-08-04T19:37:56.031Z,100167.22
2022-08-04T19:40:05.588Z,100162.56
2022-08-04T19:42:35.758Z,100166.75
2022-08-04T19:45:05.430Z,100166.69
2022-08-04T19:48:11.405Z,100175.13
2022-08-04T19:50:23.726Z,100173.50
2022-08-04T19:52:52.793Z,100166.75
2022-08-04T19:55:22.216Z,100168.41
2022-08-04T19:57:53.349Z,100173.56
2022-08-04T20:00:33.469Z,100172.53
2022-08-04T20:03:11.774Z,100174.28
2022-08-04T20:05:54.787Z,100177.00
2022-08-04T20:08:25.173Z,100177.53
2022-08-04T20:10:54.911Z,100178.75
2022-08-04T20:13:37.177Z,100171.88
2022-08-04T20:16:06.506Z,100176.06
2022-08-04T20:18:58.099Z,100175.44
2022-08-04T20:21:53.999Z,100178.63
2022-08-04T20:24:36.469Z,100179.84
2022-08-04T20:27:11.809Z,100182.75
2022-08-04T20:29:48.719Z,100177.44
2022-08-04T20:32:19.677Z,100182.19
2022-08-04T20:34:48.871Z,100175.28
2022-08-04T20:37:17.596Z,100174.59
2022-08-04T20:39:54.871Z,100173.72
2022-08-04T20:42:27.797Z,100171.31
2022-08-04T20:45:04.229Z,100169.50
2022-08-04T20:47:35.529Z,100171.72
2022-08-04T20:50:05.380Z,100179.25
2022-08-04T20:52:38.045Z,100177.50
2022-08-04T20:55:07.193Z,100171.72
2022-08-04T20:57:48.269Z,100176.94
2022-08-04T21:00:29.895Z,100181.91
2022-08-04T21:02:59.016Z,100179.03
2022-08-04T21:05:27.476Z,100179.78
2022-08-04T21:07:57.303Z,100177.88
2022-08-04T21:10:26.361Z,100181.16
2022-08-04T21:12:55.232Z,100183.47
2022-08-04T21:15:50.754Z,100188.06
2022-08-04T21:18:14.561Z,100184.22
2022-08-04T21:20:48.197Z,100183.84
2022-08-04T21:23:16.731Z,100187.03
2022-08-04T21:25:49.874Z,100180.34
2022-08-04T21:28:20.172Z,100178.91
2022-08-04T21:30:54.513Z,100177.56
2022-08-04T21:36:13.191Z,100183.00
2022-08-04T21:38:51.329Z,100174.41
2022-08-04T21:41:24.444Z,100175.50
2022-08-04T21:43:53.473Z,100175.50
2022-08-04T21:46:24.163Z,100178.28
2022-08-04T21:48:52.859Z,100174.88
2022-08-04T21:51:57.706Z,100177.69
2022-08-04T21:54:14.890Z,100168.22
2022-08-04T21:56:51.610Z,100176.44
2022-08-04T21:59:24.086Z,100176.59
2022-08-04T22:02:02.027Z,100177.91
2022-08-04T22:04:31.181Z,100182.38
2022-08-04T22:07:02.793Z,100180.56
2022-08-04T22:09:38.904Z,100179.97
2022-08-04T22:12:11.907Z,100177.66
2022-08-04T22:14:40.970Z,100169.66
2022-08-04T22:17:13.736Z,100176.19
2022-08-04T22:19:54.862Z,100178.84
2022-08-04T22:22:25.804Z,100173.16
2022-08-04T22:24:58.821Z,100171.69
2022-08-04T22:27:47.379Z,100180.03
2022-08-04T22:30:18.008Z,100180.38
2022-08-04T22:32:48.432Z,100178.91
2022-08-04T22:35:35.887Z,100169.34
2022-08-04T22:38:28.007Z,100177.59
2022-08-04T22:41:00.510Z,100174.91
2022-08-04T22:43:33.556Z,100168.38
2022-08-04T22:46:03.864Z,100171.38
2022-08-04T22:48:38.471Z,100171.59
2022-08-04T22:51:08.626Z,100167.66
2022-08-04T22:53:37.558Z,100175.22
2022-08-04T22:56:10.554Z,100164.72
2022-08-04T22:58:44.803Z,100169.91
2022-08-04T23:01:15.504Z,100168.31
2022-08-04T23:03:55.445Z,100162.25
2022-08-04T23:06:25.511Z,100164.19
2022-08-04T23:08:57.714Z,100161.75
2022-08-04T23:11:34.661Z,100161.25
2022-08-04T23:14:04.963Z,100161.47
2022-08-04T23:16:40.573Z,100154.63
2022-08-04T23:19:15.604Z,100153.50
2022-08-04T23:21:47.246Z,100150.59
2022-08-04T23:24:17.078Z,100150.09
2022-08-04T23:26:48.324Z,100149.72
2022-08-04T23:29:19.537Z,100149.06
2022-08-04T23:32:00.035Z,100144.22
2022-08-04T23:34:30.663Z,100145.41
2022-08-04T23:36:59.512Z,100149.22
2022-08-04T23:39:42.302Z,100141.53
2022-08-04T23:42:20.967Z,100141.63
2022-08-04T23:44:49.992Z,100137.28
2022-08-04T23:48:15.579Z,100139.19
2022-08-04T23:50:12.386Z,100136.63
2022-08-04T23:52:41.118Z,100131.34
2022-08-04T23:55:19.075Z,100130.41
2022-08-04T23:58:05.611Z,100138.34
